Terminal Aerodrome Forecast
Issued by NWS

Home | Current Version | Previous Version | Graphics & Text | Print | Product List | Glossary On
Versions: 1 2 3 4 5 6 7 8 9 10 11 12 13 14 15 16 17 18 19 20 21 22 23 24 25 26 27 28
149
FTUS43 KLOT 240209 AAA
TAFDPA
TAF AMD
KDPA 240209Z 2402/2424 28005KT P6SM SCT015 OVC200
     FM240500 34004KT P6SM SCT015 OVC200
     FM240900 04007KT 6SM BR SCT007 OVC015
     FM241200 08012KT P6SM OVC015=

USA.gov is the U.S. government's official web portal to all federal, state and local government web resources and services.